sensor_id;sensor_type;location;lat;lon;timestamp;P1;durP1;ratioP1;P2;durP2;ratioP2
40252;SDS011;25972;51.854;4.534;2024-03-06T00:02:07;0.85;;;0.57;;
40252;SDS011;25972;51.854;4.534;2024-03-06T00:06:59;0.47;;;0.47;;
40252;SDS011;25972;51.854;4.534;2024-03-06T00:09:25;0.95;;;0.90;;
40252;SDS011;25972;51.854;4.534;2024-03-06T00:11:54;0.40;;;0.32;;
40252;SDS011;25972;51.854;4.534;2024-03-06T00:14:20;0.73;;;0.73;;
40252;SDS011;25972;51.854;4.534;2024-03-06T00:16:49;0.17;;;0.17;;
40252;SDS011;25972;51.854;4.534;2024-03-06T00:19:16;0.40;;;0.40;;
40252;SDS011;25972;51.854;4.534;2024-03-06T00:21:45;0.88;;;0.57;;
40252;SDS011;25972;51.854;4.534;2024-03-06T00:24:11;0.28;;;0.28;;
40252;SDS011;25972;51.854;4.534;2024-03-06T00:26:39;0.45;;;0.45;;
40252;SDS011;25972;51.854;4.534;2024-03-06T00:29:09;0.47;;;0.38;;
40252;SDS011;25972;51.854;4.534;2024-03-06T00:31:35;0.10;;;0.10;;
40252;SDS011;25972;51.854;4.534;2024-03-06T00:34:01;0.35;;;0.35;;
40252;SDS011;25972;51.854;4.534;2024-03-06T00:36:27;0.50;;;0.43;;
40252;SDS011;25972;51.854;4.534;2024-03-06T00:38:53;0.20;;;0.20;;
40252;SDS011;25972;51.854;4.534;2024-03-06T00:41:19;0.20;;;0.20;;
40252;SDS011;25972;51.854;4.534;2024-03-06T00:43:44;1.65;;;0.50;;
40252;SDS011;25972;51.854;4.534;2024-03-06T00:46:10;1.20;;;0.80;;
40252;SDS011;25972;51.854;4.534;2024-03-06T00:48:36;1.75;;;0.57;;
40252;SDS011;25972;51.854;4.534;2024-03-06T00:51:04;0.20;;;0.20;;
40252;SDS011;25972;51.854;4.534;2024-03-06T00:53:31;0.20;;;0.20;;
40252;SDS011;25972;51.854;4.534;2024-03-06T00:55:57;0.43;;;0.25;;
40252;SDS011;25972;51.854;4.534;2024-03-06T00:58:22;0.47;;;0.47;;
40252;SDS011;25972;51.854;4.534;2024-03-06T01:00:48;0.22;;;0.20;;
40252;SDS011;25972;51.854;4.534;2024-03-06T01:03:14;0.30;;;0.25;;
40252;SDS011;25972;51.854;4.534;2024-03-06T01:05:39;0.10;;;0.10;;
40252;SDS011;25972;51.854;4.534;2024-03-06T01:08:05;0.10;;;0.10;;
40252;SDS011;25972;51.854;4.534;2024-03-06T01:10:31;0.50;;;0.50;;
40252;SDS011;25972;51.854;4.534;2024-03-06T01:12:56;0.00;;;0.00;;
40252;SDS011;25972;51.854;4.534;2024-03-06T01:15:22;0.10;;;0.10;;
40252;SDS011;25972;51.854;4.534;2024-03-06T01:17:48;0.10;;;0.10;;
40252;SDS011;25972;51.854;4.534;2024-03-06T01:20:14;0.80;;;0.80;;
40252;SDS011;25972;51.854;4.534;2024-03-06T01:22:40;0.30;;;0.17;;
40252;SDS011;25972;51.854;4.534;2024-03-06T01:25:06;0.00;;;0.00;;
40252;SDS011;25972;51.854;4.534;2024-03-06T01:27:32;0.50;;;0.50;;
40252;SDS011;25972;51.854;4.534;2024-03-06T01:29:58;0.08;;;0.08;;
40252;SDS011;25972;51.854;4.534;2024-03-06T01:32:23;0.10;;;0.10;;
40252;SDS011;25972;51.854;4.534;2024-03-06T01:34:49;3.97;;;0.60;;
40252;SDS011;25972;51.854;4.534;2024-03-06T01:37:15;0.28;;;0.28;;
40252;SDS011;25972;51.854;4.534;2024-03-06T01:39:41;0.80;;;0.25;;
40252;SDS011;25972;51.854;4.534;2024-03-06T01:42:06;1.20;;;1.05;;
40252;SDS011;25972;51.854;4.534;2024-03-06T01:44:32;0.10;;;0.10;;
40252;SDS011;25972;51.854;4.534;2024-03-06T01:46:58;0.65;;;0.65;;
40252;SDS011;25972;51.854;4.534;2024-03-06T01:49:24;0.85;;;0.28;;
40252;SDS011;25972;51.854;4.534;2024-03-06T01:51:52;0.55;;;0.28;;
40252;SDS011;25972;51.854;4.534;2024-03-06T01:54:21;1.73;;;0.47;;
40252;SDS011;25972;51.854;4.534;2024-03-06T01:56:47;0.40;;;0.40;;
40252;SDS011;25972;51.854;4.534;2024-03-06T01:59:15;0.25;;;0.25;;
40252;SDS011;25972;51.854;4.534;2024-03-06T02:01:42;0.00;;;0.00;;
40252;SDS011;25972;51.854;4.534;2024-03-06T02:04:08;0.88;;;0.88;;
40252;SDS011;25972;51.854;4.534;2024-03-06T02:06:38;0.10;;;0.10;;
40252;SDS011;25972;51.854;4.534;2024-03-06T02:09:04;0.63;;;0.38;;
40252;SDS011;25972;51.854;4.534;2024-03-06T02:11:30;0.63;;;0.63;;
40252;SDS011;25972;51.854;4.534;2024-03-06T02:13:57;0.25;;;0.25;;
40252;SDS011;25972;51.854;4.534;2024-03-06T02:16:23;0.25;;;0.25;;
40252;SDS011;25972;51.854;4.534;2024-03-06T02:18:55;0.20;;;0.20;;
40252;SDS011;25972;51.854;4.534;2024-03-06T02:21:22;0.35;;;0.25;;
40252;SDS011;25972;51.854;4.534;2024-03-06T02:23:48;0.20;;;0.20;;
40252;SDS011;25972;51.854;4.534;2024-03-06T02:26:16;0.10;;;0.10;;
40252;SDS011;25972;51.854;4.534;2024-03-06T02:28:52;0.20;;;0.20;;
40252;SDS011;25972;51.854;4.534;2024-03-06T02:31:19;1.70;;;0.52;;
40252;SDS011;25972;51.854;4.534;2024-03-06T02:33:49;0.40;;;0.40;;
40252;SDS011;25972;51.854;4.534;2024-03-06T02:36:15;0.10;;;0.05;;
40252;SDS011;25972;51.854;4.534;2024-03-06T02:38:44;0.20;;;0.20;;
40252;SDS011;25972;51.854;4.534;2024-03-06T02:41:11;0.73;;;0.40;;
40252;SDS011;25972;51.854;4.534;2024-03-06T02:43:38;0.10;;;0.10;;
40252;SDS011;25972;51.854;4.534;2024-03-06T02:46:04;0.60;;;0.60;;
40252;SDS011;25972;51.854;4.534;2024-03-06T02:48:30;1.35;;;0.28;;
40252;SDS011;25972;51.854;4.534;2024-03-06T02:50:56;0.75;;;0.25;;
40252;SDS011;25972;51.854;4.534;2024-03-06T02:53:22;0.50;;;0.30;;
40252;SDS011;25972;51.854;4.534;2024-03-06T02:55:48;0.45;;;0.45;;
40252;SDS011;25972;51.854;4.534;2024-03-06T02:58:14;0.70;;;0.70;;
40252;SDS011;25972;51.854;4.534;2024-03-06T03:00:41;0.70;;;0.70;;
40252;SDS011;25972;51.854;4.534;2024-03-06T03:03:07;0.63;;;0.43;;
40252;SDS011;25972;51.854;4.534;2024-03-06T03:05:33;0.70;;;0.70;;
40252;SDS011;25972;51.854;4.534;2024-03-06T03:07:59;0.55;;;0.55;;
40252;SDS011;25972;51.854;4.534;2024-03-06T03:10:25;0.77;;;0.77;;
40252;SDS011;25972;51.854;4.534;2024-03-06T03:12:51;0.65;;;0.65;;
40252;SDS011;25972;51.854;4.534;2024-03-06T03:15:17;0.50;;;0.50;;
40252;SDS011;25972;51.854;4.534;2024-03-06T03:17:42;0.08;;;0.03;;
40252;SDS011;25972;51.854;4.534;2024-03-06T03:20:08;0.32;;;0.32;;
40252;SDS011;25972;51.854;4.534;2024-03-06T03:25:07;0.30;;;0.30;;
40252;SDS011;25972;51.854;4.534;2024-03-06T03:27:39;1.15;;;1.10;;
40252;SDS011;25972;51.854;4.534;2024-03-06T03:30:08;0.32;;;0.32;;
40252;SDS011;25972;51.854;4.534;2024-03-06T03:32:35;1.35;;;0.75;;
40252;SDS011;25972;51.854;4.534;2024-03-06T03:35:01;0.10;;;0.10;;
40252;SDS011;25972;51.854;4.534;2024-03-06T03:37:28;0.93;;;0.30;;
40252;SDS011;25972;51.854;4.534;2024-03-06T03:39:53;0.52;;;0.52;;
40252;SDS011;25972;51.854;4.534;2024-03-06T03:42:19;1.48;;;0.30;;
40252;SDS011;25972;51.854;4.534;2024-03-06T03:44:45;0.20;;;0.20;;
40252;SDS011;25972;51.854;4.534;2024-03-06T03:47:10;0.85;;;0.25;;
40252;SDS011;25972;51.854;4.534;2024-03-06T03:49:37;0.55;;;0.55;;
40252;SDS011;25972;51.854;4.534;2024-03-06T03:52:03;1.05;;;0.80;;
40252;SDS011;25972;51.854;4.534;2024-03-06T03:54:28;0.57;;;0.57;;
40252;SDS011;25972;51.854;4.534;2024-03-06T03:56:54;0.60;;;0.60;;
40252;SDS011;25972;51.854;4.534;2024-03-06T03:59:20;1.05;;;1.02;;
40252;SDS011;25972;51.854;4.534;2024-03-06T04:01:45;0.45;;;0.45;;
40252;SDS011;25972;51.854;4.534;2024-03-06T04:04:12;0.50;;;0.45;;
40252;SDS011;25972;51.854;4.534;2024-03-06T04:06:38;0.50;;;0.40;;
40252;SDS011;25972;51.854;4.534;2024-03-06T04:09:03;0.52;;;0.52;;
40252;SDS011;25972;51.854;4.534;2024-03-06T04:11:30;0.30;;;0.30;;
40252;SDS011;25972;51.854;4.534;2024-03-06T04:16:24;0.30;;;0.30;;
40252;SDS011;25972;51.854;4.534;2024-03-06T04:18:50;0.32;;;0.32;;
40252;SDS011;25972;51.854;4.534;2024-03-06T04:21:15;0.20;;;0.20;;
40252;SDS011;25972;51.854;4.534;2024-03-06T04:23:42;0.63;;;0.22;;
40252;SDS011;25972;51.854;4.534;2024-03-06T04:26:08;0.55;;;0.55;;
40252;SDS011;25972;51.854;4.534;2024-03-06T04:28:34;0.08;;;0.08;;
40252;SDS011;25972;51.854;4.534;2024-03-06T04:31:00;0.17;;;0.10;;
40252;SDS011;25972;51.854;4.534;2024-03-06T04:33:25;0.17;;;0.17;;
40252;SDS011;25972;51.854;4.534;2024-03-06T04:35:51;0.17;;;0.00;;
40252;SDS011;25972;51.854;4.534;2024-03-06T04:38:17;0.20;;;0.10;;
40252;SDS011;25972;51.854;4.534;2024-03-06T04:40:43;0.00;;;0.00;;
40252;SDS011;25972;51.854;4.534;2024-03-06T04:43:09;0.45;;;0.45;;
40252;SDS011;25972;51.854;4.534;2024-03-06T04:45:35;0.20;;;0.20;;
40252;SDS011;25972;51.854;4.534;2024-03-06T04:48:01;0.63;;;0.60;;
40252;SDS011;25972;51.854;4.534;2024-03-06T04:50:27;0.20;;;0.20;;
40252;SDS011;25972;51.854;4.534;2024-03-06T04:52:52;0.30;;;0.30;;
40252;SDS011;25972;51.854;4.534;2024-03-06T04:55:18;0.10;;;0.10;;
40252;SDS011;25972;51.854;4.534;2024-03-06T04:57:47;0.40;;;0.40;;
40252;SDS011;25972;51.854;4.534;2024-03-06T05:00:13;0.30;;;0.30;;
40252;SDS011;25972;51.854;4.534;2024-03-06T05:02:40;0.25;;;0.25;;
40252;SDS011;25972;51.854;4.534;2024-03-06T05:05:07;0.77;;;0.65;;
40252;SDS011;25972;51.854;4.534;2024-03-06T05:07:33;0.90;;;0.90;;
40252;SDS011;25972;51.854;4.534;2024-03-06T05:09:59;0.75;;;0.75;;
40252;SDS011;25972;51.854;4.534;2024-03-06T05:12:25;0.20;;;0.20;;
40252;SDS011;25972;51.854;4.534;2024-03-06T05:14:52;1.50;;;0.40;;
40252;SDS011;25972;51.854;4.534;2024-03-06T05:17:18;0.15;;;0.10;;
40252;SDS011;25972;51.854;4.534;2024-03-06T05:19:44;0.00;;;0.00;;
40252;SDS011;25972;51.854;4.534;2024-03-06T05:22:10;0.30;;;0.30;;
40252;SDS011;25972;51.854;4.534;2024-03-06T05:24:36;1.13;;;0.22;;
40252;SDS011;25972;51.854;4.534;2024-03-06T05:27:03;0.10;;;0.10;;
40252;SDS011;25972;51.854;4.534;2024-03-06T05:29:29;0.55;;;0.55;;
40252;SDS011;25972;51.854;4.534;2024-03-06T05:31:54;0.47;;;0.40;;
40252;SDS011;25972;51.854;4.534;2024-03-06T05:34:21;0.15;;;0.15;;
40252;SDS011;25972;51.854;4.534;2024-03-06T05:36:47;1.02;;;0.90;;
40252;SDS011;25972;51.854;4.534;2024-03-06T05:39:13;0.65;;;0.32;;
40252;SDS011;25972;51.854;4.534;2024-03-06T05:41:39;0.20;;;0.20;;
40252;SDS011;25972;51.854;4.534;2024-03-06T05:44:06;0.30;;;0.30;;
40252;SDS011;25972;51.854;4.534;2024-03-06T05:46:31;0.40;;;0.35;;
40252;SDS011;25972;51.854;4.534;2024-03-06T05:48:57;1.23;;;0.88;;
40252;SDS011;25972;51.854;4.534;2024-03-06T05:51:23;0.30;;;0.30;;
40252;SDS011;25972;51.854;4.534;2024-03-06T05:53:49;1.50;;;1.42;;
40252;SDS011;25972;51.854;4.534;2024-03-06T05:56:16;1.98;;;1.02;;
40252;SDS011;25972;51.854;4.534;2024-03-06T05:58:43;1.40;;;1.35;;
40252;SDS011;25972;51.854;4.534;2024-03-06T06:01:15;0.55;;;0.55;;
40252;SDS011;25972;51.854;4.534;2024-03-06T06:03:43;0.80;;;0.80;;
40252;SDS011;25972;51.854;4.534;2024-03-06T06:06:09;0.43;;;0.40;;
40252;SDS011;25972;51.854;4.534;2024-03-06T06:08:35;0.88;;;0.88;;
40252;SDS011;25972;51.854;4.534;2024-03-06T06:11:03;2.28;;;2.17;;
40252;SDS011;25972;51.854;4.534;2024-03-06T06:13:29;0.95;;;0.93;;
40252;SDS011;25972;51.854;4.534;2024-03-06T06:15:57;1.48;;;1.45;;
40252;SDS011;25972;51.854;4.534;2024-03-06T06:18:23;0.93;;;0.90;;
40252;SDS011;25972;51.854;4.534;2024-03-06T06:20:49;0.95;;;0.95;;
40252;SDS011;25972;51.854;4.534;2024-03-06T06:23:14;0.80;;;0.35;;
40252;SDS011;25972;51.854;4.534;2024-03-06T06:25:40;6.07;;;0.90;;
40252;SDS011;25972;51.854;4.534;2024-03-06T06:28:06;0.40;;;0.40;;
40252;SDS011;25972;51.854;4.534;2024-03-06T06:30:31;0.80;;;0.80;;
40252;SDS011;25972;51.854;4.534;2024-03-06T06:32:57;0.90;;;0.85;;
40252;SDS011;25972;51.854;4.534;2024-03-06T06:35:23;0.10;;;0.10;;
40252;SDS011;25972;51.854;4.534;2024-03-06T06:37:50;0.60;;;0.40;;
40252;SDS011;25972;51.854;4.534;2024-03-06T06:40:15;0.30;;;0.30;;
40252;SDS011;25972;51.854;4.534;2024-03-06T06:42:48;1.00;;;0.82;;
40252;SDS011;25972;51.854;4.534;2024-03-06T06:45:15;2.05;;;0.77;;
40252;SDS011;25972;51.854;4.534;2024-03-06T06:47:41;0.47;;;0.47;;
40252;SDS011;25972;51.854;4.534;2024-03-06T06:50:07;0.70;;;0.30;;
40252;SDS011;25972;51.854;4.534;2024-03-06T06:52:34;0.85;;;0.70;;
40252;SDS011;25972;51.854;4.534;2024-03-06T06:55:00;0.45;;;0.45;;
40252;SDS011;25972;51.854;4.534;2024-03-06T06:57:26;0.38;;;0.38;;
40252;SDS011;25972;51.854;4.534;2024-03-06T06:59:52;0.05;;;0.05;;
40252;SDS011;25972;51.854;4.534;2024-03-06T07:02:17;0.57;;;0.57;;
40252;SDS011;25972;51.854;4.534;2024-03-06T07:04:43;2.03;;;1.00;;
40252;SDS011;25972;51.854;4.534;2024-03-06T07:07:09;0.00;;;0.00;;
40252;SDS011;25972;51.854;4.534;2024-03-06T07:09:35;1.95;;;0.93;;
40252;SDS011;25972;51.854;4.534;2024-03-06T07:12:00;1.95;;;0.95;;
40252;SDS011;25972;51.854;4.534;2024-03-06T07:14:27;0.57;;;0.57;;
40252;SDS011;25972;51.854;4.534;2024-03-06T07:16:53;0.50;;;0.50;;
40252;SDS011;25972;51.854;4.534;2024-03-06T07:19:19;0.50;;;0.50;;
40252;SDS011;25972;51.854;4.534;2024-03-06T07:21:45;0.50;;;0.50;;
40252;SDS011;25972;51.854;4.534;2024-03-06T07:24:11;0.32;;;0.32;;
40252;SDS011;25972;51.854;4.534;2024-03-06T07:26:36;1.40;;;1.30;;
40252;SDS011;25972;51.854;4.534;2024-03-06T07:29:02;1.00;;;0.88;;
40252;SDS011;25972;51.854;4.534;2024-03-06T07:31:28;0.30;;;0.30;;
40252;SDS011;25972;51.854;4.534;2024-03-06T07:33:53;2.13;;;2.00;;
40252;SDS011;25972;51.854;4.534;2024-03-06T07:36:20;1.88;;;1.70;;
40252;SDS011;25972;51.854;4.534;2024-03-06T07:38:46;1.55;;;1.45;;
40252;SDS011;25972;51.854;4.534;2024-03-06T07:41:12;2.03;;;1.63;;
40252;SDS011;25972;51.854;4.534;2024-03-06T07:43:37;1.27;;;1.17;;
40252;SDS011;25972;51.854;4.534;2024-03-06T07:46:04;1.60;;;1.50;;
40252;SDS011;25972;51.854;4.534;2024-03-06T07:48:35;4.45;;;2.47;;
40252;SDS011;25972;51.854;4.534;2024-03-06T07:51:07;1.75;;;1.60;;
40252;SDS011;25972;51.854;4.534;2024-03-06T07:53:33;2.85;;;2.65;;
40252;SDS011;25972;51.854;4.534;2024-03-06T07:55:58;4.88;;;1.42;;
40252;SDS011;25972;51.854;4.534;2024-03-06T07:58:24;1.95;;;1.85;;
40252;SDS011;25972;51.854;4.534;2024-03-06T08:00:50;2.75;;;2.35;;
40252;SDS011;25972;51.854;4.534;2024-03-06T08:03:20;7.55;;;2.72;;
40252;SDS011;25972;51.854;4.534;2024-03-06T08:05:47;3.20;;;2.78;;
40252;SDS011;25972;51.854;4.534;2024-03-06T08:08:20;2.35;;;1.58;;
40252;SDS011;25972;51.854;4.534;2024-03-06T08:10:46;4.63;;;2.80;;
40252;SDS011;25972;51.854;4.534;2024-03-06T08:13:11;3.45;;;3.15;;
40252;SDS011;25972;51.854;4.534;2024-03-06T08:15:37;1.67;;;1.58;;
40252;SDS011;25972;51.854;4.534;2024-03-06T08:18:03;2.63;;;2.33;;
40252;SDS011;25972;51.854;4.534;2024-03-06T08:20:29;2.75;;;2.53;;
40252;SDS011;25972;51.854;4.534;2024-03-06T08:22:55;3.33;;;2.67;;
40252;SDS011;25972;51.854;4.534;2024-03-06T08:25:21;4.85;;;3.17;;
40252;SDS011;25972;51.854;4.534;2024-03-06T08:27:47;3.50;;;3.05;;
40252;SDS011;25972;51.854;4.534;2024-03-06T08:30:13;3.95;;;3.58;;
40252;SDS011;25972;51.854;4.534;2024-03-06T08:32:39;3.35;;;2.80;;
40252;SDS011;25972;51.854;4.534;2024-03-06T08:35:05;6.25;;;2.95;;
40252;SDS011;25972;51.854;4.534;2024-03-06T08:37:38;3.38;;;2.83;;
40252;SDS011;25972;51.854;4.534;2024-03-06T08:40:04;6.03;;;3.55;;
40252;SDS011;25972;51.854;4.534;2024-03-06T08:42:32;3.88;;;2.38;;
40252;SDS011;25972;51.854;4.534;2024-03-06T08:44:58;3.80;;;2.60;;
40252;SDS011;25972;51.854;4.534;2024-03-06T08:47:24;3.10;;;2.80;;
40252;SDS011;25972;51.854;4.534;2024-03-06T08:49:49;4.05;;;2.55;;
40252;SDS011;25972;51.854;4.534;2024-03-06T08:52:15;3.30;;;2.53;;
40252;SDS011;25972;51.854;4.534;2024-03-06T08:54:41;4.55;;;2.70;;
40252;SDS011;25972;51.854;4.534;2024-03-06T08:57:07;4.00;;;3.20;;
40252;SDS011;25972;51.854;4.534;2024-03-06T08:59:33;3.42;;;3.13;;
40252;SDS011;25972;51.854;4.534;2024-03-06T09:02:11;4.93;;;3.83;;
40252;SDS011;25972;51.854;4.534;2024-03-06T09:04:43;4.35;;;3.10;;
40252;SDS011;25972;51.854;4.534;2024-03-06T09:07:09;4.97;;;3.08;;
40252;SDS011;25972;51.854;4.534;2024-03-06T09:09:36;3.22;;;3.00;;
40252;SDS011;25972;51.854;4.534;2024-03-06T09:12:08;3.40;;;2.63;;
40252;SDS011;25972;51.854;4.534;2024-03-06T09:14:38;6.00;;;3.40;;
40252;SDS011;25972;51.854;4.534;2024-03-06T09:17:04;5.60;;;3.25;;
40252;SDS011;25972;51.854;4.534;2024-03-06T09:19:31;4.38;;;3.58;;
40252;SDS011;25972;51.854;4.534;2024-03-06T09:21:57;2.97;;;2.40;;
40252;SDS011;25972;51.854;4.534;2024-03-06T09:24:23;5.50;;;2.75;;
40252;SDS011;25972;51.854;4.534;2024-03-06T09:26:50;6.13;;;3.78;;
40252;SDS011;25972;51.854;4.534;2024-03-06T09:29:19;4.40;;;3.30;;
40252;SDS011;25972;51.854;4.534;2024-03-06T09:31:46;4.85;;;3.30;;
40252;SDS011;25972;51.854;4.534;2024-03-06T09:34:15;6.22;;;4.78;;
40252;SDS011;25972;51.854;4.534;2024-03-06T09:36:47;3.90;;;3.10;;
40252;SDS011;25972;51.854;4.534;2024-03-06T09:39:17;3.67;;;2.95;;
40252;SDS011;25972;51.854;4.534;2024-03-06T09:41:50;3.58;;;3.03;;
40252;SDS011;25972;51.854;4.534;2024-03-06T09:44:16;4.88;;;2.60;;
40252;SDS011;25972;51.854;4.534;2024-03-06T09:46:43;2.17;;;1.75;;
40252;SDS011;25972;51.854;4.534;2024-03-06T09:49:14;2.25;;;2.05;;
40252;SDS011;25972;51.854;4.534;2024-03-06T09:51:44;2.00;;;1.80;;
40252;SDS011;25972;51.854;4.534;2024-03-06T09:54:11;2.42;;;2.22;;
40252;SDS011;25972;51.854;4.534;2024-03-06T09:56:44;3.80;;;2.50;;
40252;SDS011;25972;51.854;4.534;2024-03-06T09:59:10;4.00;;;2.65;;
40252;SDS011;25972;51.854;4.534;2024-03-06T10:01:43;3.10;;;1.83;;
40252;SDS011;25972;51.854;4.534;2024-03-06T10:04:25;5.03;;;2.42;;
40252;SDS011;25972;51.854;4.534;2024-03-06T10:06:52;3.42;;;2.28;;
40252;SDS011;25972;51.854;4.534;2024-03-06T10:09:23;4.00;;;1.27;;
40252;SDS011;25972;51.854;4.534;2024-03-06T10:11:50;1.40;;;1.30;;
40252;SDS011;25972;51.854;4.534;2024-03-06T10:14:18;1.08;;;1.00;;
40252;SDS011;25972;51.854;4.534;2024-03-06T10:17:00;2.47;;;2.28;;
40252;SDS011;25972;51.854;4.534;2024-03-06T10:19:27;3.78;;;2.38;;
40252;SDS011;25972;51.854;4.534;2024-03-06T10:21:54;2.35;;;2.15;;
40252;SDS011;25972;51.854;4.534;2024-03-06T10:24:22;4.18;;;3.75;;
40252;SDS011;25972;51.854;4.534;2024-03-06T10:26:52;4.75;;;2.63;;
40252;SDS011;25972;51.854;4.534;2024-03-06T10:29:21;3.40;;;2.55;;
40252;SDS011;25972;51.854;4.534;2024-03-06T10:31:57;2.83;;;2.28;;
40252;SDS011;25972;51.854;4.534;2024-03-06T10:34:24;1.33;;;1.23;;
40252;SDS011;25972;51.854;4.534;2024-03-06T10:36:54;5.90;;;2.40;;
40252;SDS011;25972;51.854;4.534;2024-03-06T10:39:21;2.15;;;1.75;;
40252;SDS011;25972;51.854;4.534;2024-03-06T10:41:54;1.35;;;0.95;;
40252;SDS011;25972;51.854;4.534;2024-03-06T10:44:24;1.42;;;1.33;;
40252;SDS011;25972;51.854;4.534;2024-03-06T10:47:01;2.95;;;2.63;;
40252;SDS011;25972;51.854;4.534;2024-03-06T10:49:28;3.53;;;2.60;;
40252;SDS011;25972;51.854;4.534;2024-03-06T10:51:58;3.95;;;2.55;;
40252;SDS011;25972;51.854;4.534;2024-03-06T10:54:28;2.03;;;1.90;;
40252;SDS011;25972;51.854;4.534;2024-03-06T10:56:59;4.57;;;2.30;;
40252;SDS011;25972;51.854;4.534;2024-03-06T10:59:26;2.25;;;2.03;;
40252;SDS011;25972;51.854;4.534;2024-03-06T11:01:55;1.90;;;1.40;;
40252;SDS011;25972;51.854;4.534;2024-03-06T11:04:25;3.00;;;2.40;;
40252;SDS011;25972;51.854;4.534;2024-03-06T11:06:54;2.53;;;2.33;;
40252;SDS011;25972;51.854;4.534;2024-03-06T11:09:20;2.05;;;1.67;;
40252;SDS011;25972;51.854;4.534;2024-03-06T11:11:50;2.42;;;1.90;;
40252;SDS011;25972;51.854;4.534;2024-03-06T11:14:23;3.33;;;2.80;;
40252;SDS011;25972;51.854;4.534;2024-03-06T11:17:02;4.50;;;3.45;;
40252;SDS011;25972;51.854;4.534;2024-03-06T11:28:17;3.20;;;2.88;;
40252;SDS011;25972;51.854;4.534;2024-03-06T11:30:47;1.90;;;1.70;;
40252;SDS011;25972;51.854;4.534;2024-03-06T11:36:18;3.05;;;1.67;;
40252;SDS011;25972;51.854;4.534;2024-03-06T11:39:01;2.35;;;1.95;;
40252;SDS011;25972;51.854;4.534;2024-03-06T11:41:29;2.75;;;1.92;;
40252;SDS011;25972;51.854;4.534;2024-03-06T11:44:00;2.08;;;1.05;;
40252;SDS011;25972;51.854;4.534;2024-03-06T11:46:42;1.92;;;1.35;;
40252;SDS011;25972;51.854;4.534;2024-03-06T11:49:17;3.92;;;1.75;;
40252;SDS011;25972;51.854;4.534;2024-03-06T11:51:49;2.15;;;2.03;;
40252;SDS011;25972;51.854;4.534;2024-03-06T11:54:18;2.55;;;2.35;;
40252;SDS011;25972;51.854;4.534;2024-03-06T11:56:48;2.33;;;2.13;;
40252;SDS011;25972;51.854;4.534;2024-03-06T11:59:24;2.47;;;2.22;;
40252;SDS011;25972;51.854;4.534;2024-03-06T12:01:51;2.85;;;2.55;;
40252;SDS011;25972;51.854;4.534;2024-03-06T12:04:23;2.28;;;1.77;;
40252;SDS011;25972;51.854;4.534;2024-03-06T12:06:49;4.97;;;1.77;;
40252;SDS011;25972;51.854;4.534;2024-03-06T12:09:15;4.82;;;2.22;;
40252;SDS011;25972;51.854;4.534;2024-03-06T12:11:41;2.97;;;2.72;;
40252;SDS011;25972;51.854;4.534;2024-03-06T12:14:14;2.83;;;2.63;;
40252;SDS011;25972;51.854;4.534;2024-03-06T12:16:41;3.88;;;2.08;;
40252;SDS011;25972;51.854;4.534;2024-03-06T12:19:08;1.70;;;1.60;;
40252;SDS011;25972;51.854;4.534;2024-03-06T12:21:34;2.70;;;1.58;;
40252;SDS011;25972;51.854;4.534;2024-03-06T12:24:07;1.42;;;1.33;;
40252;SDS011;25972;51.854;4.534;2024-03-06T12:26:33;1.48;;;1.30;;
40252;SDS011;25972;51.854;4.534;2024-03-06T12:29:06;3.60;;;1.38;;
40252;SDS011;25972;51.854;4.534;2024-03-06T12:31:34;4.88;;;1.60;;
40252;SDS011;25972;51.854;4.534;2024-03-06T12:34:00;2.22;;;1.42;;
40252;SDS011;25972;51.854;4.534;2024-03-06T12:36:27;1.80;;;1.70;;
40252;SDS011;25972;51.854;4.534;2024-03-06T12:38:55;2.45;;;2.25;;
40252;SDS011;25972;51.854;4.534;2024-03-06T12:41:21;1.75;;;1.38;;
40252;SDS011;25972;51.854;4.534;2024-03-06T12:43:47;1.58;;;1.48;;
40252;SDS011;25972;51.854;4.534;2024-03-06T12:46:13;1.48;;;1.38;;
40252;SDS011;25972;51.854;4.534;2024-03-06T12:48:38;2.45;;;2.10;;
40252;SDS011;25972;51.854;4.534;2024-03-06T12:51:04;1.80;;;1.67;;
40252;SDS011;25972;51.854;4.534;2024-03-06T12:53:30;1.77;;;1.63;;
40252;SDS011;25972;51.854;4.534;2024-03-06T12:55:57;1.42;;;1.30;;
40252;SDS011;25972;51.854;4.534;2024-03-06T12:58:23;0.70;;;0.70;;
40252;SDS011;25972;51.854;4.534;2024-03-06T13:00:49;2.13;;;1.92;;
40252;SDS011;25972;51.854;4.534;2024-03-06T13:03:17;1.45;;;1.30;;
40252;SDS011;25972;51.854;4.534;2024-03-06T13:05:43;1.73;;;1.63;;
40252;SDS011;25972;51.854;4.534;2024-03-06T13:08:08;1.25;;;1.13;;
40252;SDS011;25972;51.854;4.534;2024-03-06T13:10:38;2.30;;;1.08;;
40252;SDS011;25972;51.854;4.534;2024-03-06T13:13:03;1.05;;;0.55;;
40252;SDS011;25972;51.854;4.534;2024-03-06T13:15:29;1.52;;;0.82;;
40252;SDS011;25972;51.854;4.534;2024-03-06T13:17:55;1.63;;;1.05;;
40252;SDS011;25972;51.854;4.534;2024-03-06T13:20:21;1.20;;;1.10;;
40252;SDS011;25972;51.854;4.534;2024-03-06T13:22:47;1.77;;;1.42;;
40252;SDS011;25972;51.854;4.534;2024-03-06T13:25:12;1.08;;;0.73;;
40252;SDS011;25972;51.854;4.534;2024-03-06T13:27:38;2.05;;;1.50;;
40252;SDS011;25972;51.854;4.534;2024-03-06T13:30:04;1.25;;;1.17;;
40252;SDS011;25972;51.854;4.534;2024-03-06T13:32:32;1.77;;;1.38;;
40252;SDS011;25972;51.854;4.534;2024-03-06T13:34:58;1.70;;;1.60;;
40252;SDS011;25972;51.854;4.534;2024-03-06T13:37:24;1.15;;;0.90;;
40252;SDS011;25972;51.854;4.534;2024-03-06T13:39:50;0.98;;;0.98;;
40252;SDS011;25972;51.854;4.534;2024-03-06T13:42:17;2.50;;;1.27;;
40252;SDS011;25972;51.854;4.534;2024-03-06T13:44:43;1.77;;;1.35;;
40252;SDS011;25972;51.854;4.534;2024-03-06T13:47:14;2.75;;;1.42;;
40252;SDS011;25972;51.854;4.534;2024-03-06T13:49:42;2.20;;;1.05;;
40252;SDS011;25972;51.854;4.534;2024-03-06T13:52:08;0.65;;;0.47;;
40252;SDS011;25972;51.854;4.534;2024-03-06T13:54:41;1.45;;;1.05;;
40252;SDS011;25972;51.854;4.534;2024-03-06T13:57:07;1.23;;;1.10;;
40252;SDS011;25972;51.854;4.534;2024-03-06T13:59:34;1.05;;;0.88;;
40252;SDS011;25972;51.854;4.534;2024-03-06T14:02:00;0.55;;;0.55;;
40252;SDS011;25972;51.854;4.534;2024-03-06T14:04:27;2.15;;;1.45;;
40252;SDS011;25972;51.854;4.534;2024-03-06T14:06:54;3.05;;;1.00;;
40252;SDS011;25972;51.854;4.534;2024-03-06T14:09:22;1.08;;;0.80;;
40252;SDS011;25972;51.854;4.534;2024-03-06T14:11:50;1.35;;;0.95;;
40252;SDS011;25972;51.854;4.534;2024-03-06T14:14:16;3.22;;;1.25;;
40252;SDS011;25972;51.854;4.534;2024-03-06T14:16:43;1.95;;;1.85;;
40252;SDS011;25972;51.854;4.534;2024-03-06T14:19:09;2.13;;;0.93;;
40252;SDS011;25972;51.854;4.534;2024-03-06T14:21:35;1.52;;;1.42;;
40252;SDS011;25972;51.854;4.534;2024-03-06T14:24:01;0.82;;;0.77;;
40252;SDS011;25972;51.854;4.534;2024-03-06T14:26:34;1.27;;;1.00;;
40252;SDS011;25972;51.854;4.534;2024-03-06T14:29:00;2.55;;;0.57;;
40252;SDS011;25972;51.854;4.534;2024-03-06T14:31:27;1.33;;;0.65;;
40252;SDS011;25972;51.854;4.534;2024-03-06T14:33:53;2.30;;;1.05;;
40252;SDS011;25972;51.854;4.534;2024-03-06T14:36:19;0.80;;;0.50;;
40252;SDS011;25972;51.854;4.534;2024-03-06T14:38:50;1.55;;;1.50;;
40252;SDS011;25972;51.854;4.534;2024-03-06T14:41:17;2.00;;;1.80;;
40252;SDS011;25972;51.854;4.534;2024-03-06T14:43:44;2.15;;;1.67;;
40252;SDS011;25972;51.854;4.534;2024-03-06T14:46:10;1.65;;;1.50;;
40252;SDS011;25972;51.854;4.534;2024-03-06T14:48:37;2.13;;;1.70;;
40252;SDS011;25972;51.854;4.534;2024-03-06T14:51:03;1.45;;;1.35;;
40252;SDS011;25972;51.854;4.534;2024-03-06T14:53:29;1.63;;;1.52;;
40252;SDS011;25972;51.854;4.534;2024-03-06T14:55:58;0.90;;;0.90;;
40252;SDS011;25972;51.854;4.534;2024-03-06T14:58:24;1.98;;;1.45;;
40252;SDS011;25972;51.854;4.534;2024-03-06T15:00:50;2.45;;;2.15;;
40252;SDS011;25972;51.854;4.534;2024-03-06T15:05:44;1.23;;;1.13;;
40252;SDS011;25972;51.854;4.534;2024-03-06T15:08:10;1.48;;;0.70;;
40252;SDS011;25972;51.854;4.534;2024-03-06T15:10:36;1.02;;;0.95;;